Terminal Aerodrome Forecast
Issued by NWS Indianapolis, IN

Home | Current Version | Previous Version | Text Only | Print | Product List | Glossary On
Versions: 1 2 3 4 5 6 7 8 9 10 11 12 13 14 15 16 17 18 19 20 21 22 23 24 25 26 27
799
FTUS43 KIND 241720
TAFIND
TAF
KIND 241720Z 2418/2524 20023G33KT P6SM BKN070
     FM241900 20020G30KT P6SM VCTS BKN060CB
     FM242300 22013G21KT P6SM -SHRA VCTS OVC060CB
     FM250100 24012KT P6SM -SHRA VCTS OVC025CB
     FM250300 27011G21KT P6SM VCSH OVC070
     FM250500 27012G21KT P6SM BKN050
     FM251400 27014G23KT P6SM OVC025=

USA.gov is the U.S. government's official web portal to all federal, state and local government web resources and services.